createdAt,value
2018-07-21T00:02:27.629Z,99097.91
2018-07-21T00:04:55.453Z,99095.43
2018-07-21T00:07:23.501Z,99097.27
2018-07-21T00:09:51.362Z,99100.28
2018-07-21T00:12:19.153Z,99098.58
2018-07-21T00:14:46.924Z,99101.77
2018-07-21T00:17:14.717Z,99097.17
2018-07-21T00:19:42.886Z,99093.89
2018-07-21T00:22:10.714Z,99095.88
2018-07-21T00:24:38.501Z,99095.13
2018-07-21T00:27:06.267Z,99093.04
2018-07-21T00:29:34.034Z,99083.02
2018-07-21T00:32:01.817Z,99089.27
2018-07-21T00:34:29.601Z,99091.11
2018-07-21T00:36:57.386Z,99095.09
2018-07-21T00:39:25.149Z,99092.73
2018-07-21T00:41:52.934Z,99092.55
2018-07-21T00:44:20.717Z,99096.80
2018-07-21T00:46:48.566Z,99086.27
2018-07-21T00:49:16.389Z,99084.25
2018-07-21T00:51:44.196Z,99088.02
2018-07-21T00:54:11.975Z,99096.73
2018-07-21T00:56:39.751Z,99089.47
2018-07-21T00:59:08.456Z,99089.25
2018-07-21T01:01:36.208Z,99088.50
2018-07-21T01:04:04.067Z,99089.18
2018-07-21T01:06:31.845Z,99091.94
2018-07-21T01:08:59.620Z,99086.75
2018-07-21T01:11:27.491Z,99093.23
2018-07-21T01:13:55.263Z,99090.50
2018-07-21T01:16:23.124Z,99091.80
2018-07-21T01:18:50.911Z,99086.52
2018-07-21T01:21:18.741Z,99096.20
2018-07-21T01:23:46.534Z,99102.20
2018-07-21T01:26:14.370Z,99097.22
2018-07-21T01:28:42.152Z,99099.91
2018-07-21T01:31:10.031Z,99104.61
2018-07-21T01:33:37.786Z,99109.13
2018-07-21T01:36:05.709Z,99103.55
2018-07-21T01:38:33.518Z,99107.47
2018-07-21T01:41:01.315Z,99100.80
2018-07-21T01:43:29.071Z,99099.16
2018-07-21T01:45:56.813Z,99102.78
2018-07-21T01:48:24.657Z,99104.22
2018-07-21T01:50:52.450Z,99106.38
2018-07-21T01:53:20.222Z,99107.98
2018-07-21T01:55:48.007Z,99105.88
2018-07-21T01:58:15.800Z,99109.55
2018-07-21T02:00:43.638Z,99113.26
2018-07-21T02:03:11.412Z,99109.47
2018-07-21T02:05:39.178Z,99112.68
2018-07-21T02:08:06.994Z,99106.06
2018-07-21T02:10:35.049Z,99109.28
2018-07-21T02:13:02.861Z,99111.23
2018-07-21T02:15:30.630Z,99106.20
2018-07-21T02:17:58.586Z,99109.92
2018-07-21T02:20:26.353Z,99117.64
2018-07-21T02:22:54.179Z,99112.63
2018-07-21T02:25:22.048Z,99111.14
2018-07-21T02:27:49.839Z,99107.39
2018-07-21T02:30:17.646Z,99109.55
2018-07-21T02:32:45.457Z,99111.47
2018-07-21T02:35:13.286Z,99114.51
2018-07-21T02:37:41.139Z,99115.30
2018-07-21T02:40:08.975Z,99111.56
2018-07-21T02:42:36.753Z,99118.86
2018-07-21T02:45:04.851Z,99109.95
2018-07-21T02:47:32.666Z,99121.86
2018-07-21T02:50:00.469Z,99123.92
2018-07-21T02:52:28.311Z,99118.46
2018-07-21T02:54:56.085Z,99122.91
2018-07-21T02:57:23.861Z,99125.81
2018-07-21T02:59:51.630Z,99132.33
2018-07-21T03:02:19.473Z,99128.44
2018-07-21T03:04:47.297Z,99128.05
2018-07-21T03:07:15.085Z,99134.88
2018-07-21T03:09:42.869Z,99136.31
2018-07-21T03:12:10.654Z,99133.20
2018-07-21T03:14:38.513Z,99133.83
2018-07-21T03:17:06.343Z,99128.75
2018-07-21T03:19:34.258Z,99128.68
2018-07-21T03:22:02.116Z,99123.56
2018-07-21T03:24:29.937Z,99125.80
2018-07-21T03:26:57.719Z,99125.75
2018-07-21T03:29:25.598Z,99124.20
2018-07-21T03:31:53.934Z,99121.64
2018-07-21T03:34:21.702Z,99125.56
2018-07-21T03:36:49.529Z,99124.18
2018-07-21T03:39:17.686Z,99108.75
2018-07-21T03:41:45.495Z,99116.11
2018-07-21T03:44:13.325Z,99106.73
2018-07-21T03:46:41.186Z,99112.95
2018-07-21T03:49:09.055Z,99104.22
2018-07-21T03:51:36.841Z,99104.84
2018-07-21T03:54:04.639Z,99108.04
2018-07-21T03:56:32.474Z,99109.08
2018-07-21T03:59:00.258Z,99101.20
2018-07-21T04:01:28.098Z,99097.91
2018-07-21T04:03:55.891Z,99089.24
2018-07-21T04:06:23.696Z,99108.63
2018-07-21T04:08:51.549Z,99102.34
2018-07-21T04:11:19.414Z,99107.52
2018-07-21T04:13:47.287Z,99094.28
2018-07-21T04:16:15.160Z,99097.36
2018-07-21T04:18:42.927Z,99104.92
2018-07-21T04:21:10.686Z,99107.32
2018-07-21T04:23:38.461Z,99106.10
2018-07-21T04:26:06.542Z,99108.81
2018-07-21T04:28:34.398Z,99112.69
2018-07-21T04:31:02.171Z,99121.24
2018-07-21T04:33:29.937Z,99123.90
2018-07-21T04:35:57.702Z,99118.62
2018-07-21T04:38:25.561Z,99119.83
2018-07-21T04:40:53.369Z,99107.68
2018-07-21T04:43:21.131Z,99114.17
2018-07-21T04:45:48.893Z,99117.25
2018-07-21T04:48:16.683Z,99118.88
2018-07-21T04:50:44.481Z,99118.92
2018-07-21T04:53:12.249Z,99118.19
2018-07-21T04:55:40.013Z,99130.37
2018-07-21T04:58:07.802Z,99130.48
2018-07-21T05:00:35.606Z,99131.42
2018-07-21T05:03:03.447Z,99127.20
2018-07-21T05:05:31.245Z,99130.38
2018-07-21T05:07:59.034Z,99121.78
2018-07-21T05:10:26.819Z,99130.94
2018-07-21T05:12:54.679Z,99128.03
2018-07-21T05:15:22.509Z,99135.55
2018-07-21T05:17:50.289Z,99144.02
2018-07-21T05:20:18.118Z,99137.53
2018-07-21T05:22:45.939Z,99145.41
2018-07-21T05:25:13.739Z,99147.70
2018-07-21T05:27:41.553Z,99157.56
2018-07-21T05:30:09.402Z,99169.22
2018-07-21T05:32:37.303Z,99169.88
2018-07-21T05:35:05.313Z,99167.11
2018-07-21T05:37:33.127Z,99168.43
2018-07-21T05:40:00.926Z,99150.44
2018-07-21T05:42:28.750Z,99147.25
2018-07-21T05:44:56.520Z,99143.42
2018-07-21T05:47:24.294Z,99154.22
2018-07-21T05:49:52.101Z,99148.11
2018-07-21T05:52:19.902Z,99156.13
2018-07-21T05:54:47.755Z,99169.38
2018-07-21T05:57:15.749Z,99161.69
2018-07-21T05:59:43.529Z,99178.16
2018-07-21T06:02:11.397Z,99183.51
2018-07-21T06:04:39.246Z,99178.95
2018-07-21T06:07:07.022Z,99176.74
2018-07-21T06:09:34.786Z,99165.15
2018-07-21T06:12:02.613Z,99158.03
2018-07-21T06:14:30.381Z,99159.35
2018-07-21T06:16:58.179Z,99150.72
2018-07-21T06:19:25.984Z,99154.27
2018-07-21T06:21:53.754Z,99158.82
2018-07-21T06:24:21.569Z,99151.84
2018-07-21T06:26:49.320Z,99149.02
2018-07-21T06:29:17.114Z,99154.32
2018-07-21T06:31:44.954Z,99148.16
2018-07-21T06:34:12.756Z,99151.95
2018-07-21T06:36:40.598Z,99157.03
2018-07-21T06:39:10.188Z,99150.37
2018-07-21T06:41:38.006Z,99144.09
2018-07-21T06:44:05.923Z,99156.35
2018-07-21T06:46:33.762Z,99149.69
2018-07-21T06:49:01.611Z,99150.37
2018-07-21T06:51:29.435Z,99143.95
2018-07-21T06:53:57.278Z,99140.16
2018-07-21T06:56:25.083Z,99142.13
2018-07-21T06:58:52.909Z,99147.64
2018-07-21T07:01:20.789Z,99158.20
2018-07-21T07:03:48.609Z,99155.80
2018-07-21T07:06:16.750Z,99161.73
2018-07-21T07:08:44.535Z,99147.30
2018-07-21T07:11:12.459Z,99161.30
2018-07-21T07:13:40.298Z,99160.05
2018-07-21T07:16:08.110Z,99148.87
2018-07-21T07:18:35.897Z,99152.47
2018-07-21T07:21:03.814Z,99150.55
2018-07-21T07:23:31.631Z,99153.68
2018-07-21T07:25:59.484Z,99153.17
2018-07-21T07:28:27.282Z,99160.19
2018-07-21T07:30:55.123Z,99164.78
2018-07-21T07:33:22.954Z,99156.42
2018-07-21T07:35:50.763Z,99149.23
2018-07-21T07:38:18.623Z,99157.51
2018-07-21T07:40:46.416Z,99172.45
2018-07-21T07:43:14.206Z,99173.09
2018-07-21T07:45:42.011Z,99161.18
2018-07-21T07:48:09.793Z,99157.30
2018-07-21T07:50:37.625Z,99165.54
2018-07-21T07:53:05.445Z,99167.41
2018-07-21T07:55:34.036Z,99172.73
2018-07-21T07:58:03.354Z,99166.25
2018-07-21T08:00:31.270Z,99168.52
2018-07-21T08:02:59.898Z,99158.95
2018-07-21T08:05:27.697Z,99163.70
2018-07-21T08:07:55.494Z,99171.23
2018-07-21T08:10:23.303Z,99172.52
2018-07-21T08:12:51.651Z,99167.02
2018-07-21T08:15:20.077Z,99166.52
2018-07-21T08:17:48.335Z,99166.12
2018-07-21T08:20:16.305Z,99167.36
2018-07-21T08:22:44.074Z,99163.80
2018-07-21T08:25:11.842Z,99170.84
2018-07-21T08:27:39.691Z,99160.53
2018-07-21T08:30:08.790Z,99161.76
2018-07-21T08:32:36.610Z,99163.34
2018-07-21T08:35:04.500Z,99167.25
2018-07-21T08:37:32.541Z,99157.19
2018-07-21T08:40:00.333Z,99153.70
2018-07-21T08:42:28.403Z,99158.20
2018-07-21T08:44:56.270Z,99162.16
2018-07-21T08:47:24.165Z,99158.75
2018-07-21T08:49:51.959Z,99149.89
2018-07-21T08:52:19.814Z,99148.53
2018-07-21T08:54:47.593Z,99153.55
2018-07-21T08:57:15.688Z,99155.45
2018-07-21T08:59:43.552Z,99155.06
2018-07-21T09:02:11.486Z,99160.10
2018-07-21T09:04:39.442Z,99156.56
2018-07-21T09:07:07.245Z,99154.25
2018-07-21T09:09:35.070Z,99156.02
2018-07-21T09:12:02.886Z,99151.50
2018-07-21T09:14:30.681Z,99161.72
2018-07-21T09:16:58.570Z,99150.58
2018-07-21T09:19:26.735Z,99169.84
2018-07-21T09:21:54.735Z,99143.51
2018-07-21T09:24:22.541Z,99147.73
2018-07-21T09:26:50.313Z,99160.70
2018-07-21T09:29:18.249Z,99151.92
2018-07-21T09:31:46.180Z,99157.84
2018-07-21T09:34:14.041Z,99154.09
2018-07-21T09:36:41.844Z,99150.49
2018-07-21T09:39:10.418Z,99152.54
2018-07-21T09:41:38.296Z,99149.13
2018-07-21T09:44:06.143Z,99147.73
2018-07-21T09:46:33.956Z,99143.92
2018-07-21T09:49:01.771Z,99150.55
2018-07-21T09:51:29.587Z,99147.19
2018-07-21T09:53:57.465Z,99144.77
2018-07-21T09:56:25.287Z,99149.90
2018-07-21T09:58:53.133Z,99144.39
2018-07-21T10:01:20.971Z,99139.58
2018-07-21T10:03:48.760Z,99143.12
2018-07-21T10:06:16.600Z,99140.63
2018-07-21T10:08:44.451Z,99131.81
2018-07-21T10:11:12.319Z,99139.77
2018-07-21T10:13:40.220Z,99134.83
2018-07-21T10:16:08.036Z,99140.20
2018-07-21T10:18:35.825Z,99132.80
2018-07-21T10:21:03.678Z,99135.84
2018-07-21T10:23:31.863Z,99127.75
2018-07-21T10:26:05.250Z,99130.13
2018-07-21T10:28:38.549Z,99125.34
2018-07-21T10:31:06.386Z,99135.73
2018-07-21T10:33:34.187Z,99129.53
2018-07-21T10:36:02.069Z,99124.77
2018-07-21T10:38:29.841Z,99131.41
2018-07-21T10:40:57.647Z,99134.63
2018-07-21T10:43:25.499Z,99116.00
2018-07-21T10:45:53.326Z,99122.17
2018-07-21T10:48:21.120Z,99123.26
2018-07-21T10:50:49.004Z,99117.23
2018-07-21T10:53:16.807Z,99117.39
2018-07-21T10:55:44.641Z,99105.67
2018-07-21T10:58:12.441Z,99104.23
2018-07-21T11:00:40.314Z,99111.42
2018-07-21T11:05:44.066Z,99116.38
2018-07-21T11:08:12.022Z,99110.41
2018-07-21T11:10:39.788Z,99108.62
2018-07-21T11:13:07.609Z,99103.83
2018-07-21T11:15:36.627Z,99099.88
2018-07-21T11:18:04.439Z,99106.33
2018-07-21T11:20:32.302Z,99106.56
2018-07-21T11:23:00.118Z,99101.70
2018-07-21T11:25:27.915Z,99086.80
2018-07-21T11:27:55.739Z,99105.05
2018-07-21T11:30:23.529Z,99101.70
2018-07-21T11:32:51.349Z,99104.70
2018-07-21T11:35:19.199Z,99099.05
2018-07-21T11:37:46.989Z,99099.23
2018-07-21T11:40:14.806Z,99100.48
2018-07-21T11:42:42.602Z,99100.09
2018-07-21T11:45:10.437Z,99102.90
2018-07-21T11:47:38.235Z,99097.41
2018-07-21T11:50:06.083Z,99101.20
2018-07-21T11:52:33.886Z,99095.88
2018-07-21T11:55:01.702Z,99097.14
2018-07-21T11:57:29.477Z,99096.56
2018-07-21T11:59:57.259Z,99093.61
2018-07-21T12:02:25.110Z,99095.30
2018-07-21T12:04:52.910Z,99094.16
2018-07-21T12:07:20.769Z,99089.25
2018-07-21T12:09:48.633Z,99086.51
2018-07-21T12:12:16.402Z,99087.13
2018-07-21T12:14:44.238Z,99084.38
2018-07-21T12:17:12.047Z,99065.44
2018-07-21T12:19:40.116Z,99067.08
2018-07-21T12:22:07.954Z,99073.28
2018-07-21T12:24:35.828Z,99063.02
2018-07-21T12:27:03.918Z,99074.13
2018-07-21T12:29:31.735Z,99068.09
2018-07-21T12:31:59.537Z,99070.09
2018-07-21T12:34:27.372Z,99073.25
2018-07-21T12:36:55.188Z,99064.45
2018-07-21T12:39:22.981Z,99056.94
2018-07-21T12:41:50.815Z,99047.02
2018-07-21T12:44:18.621Z,99059.30
2018-07-21T12:46:46.458Z,99053.66
2018-07-21T12:49:14.245Z,99064.74
2018-07-21T12:51:42.036Z,99047.25
2018-07-21T12:54:09.927Z,99051.13
2018-07-21T12:56:37.721Z,99055.64
2018-07-21T12:59:05.586Z,99056.70
2018-07-21T13:01:33.377Z,99055.98
2018-07-21T13:04:01.191Z,99043.37
2018-07-21T13:06:29.066Z,99049.13
2018-07-21T13:08:56.914Z,99048.59
2018-07-21T13:11:24.742Z,99047.41
2018-07-21T13:13:52.531Z,99046.63
2018-07-21T13:16:20.346Z,99049.83
2018-07-21T13:18:48.130Z,99053.70
2018-07-21T13:21:15.987Z,99051.55
2018-07-21T13:23:43.851Z,99055.61
2018-07-21T13:26:11.690Z,99053.41
2018-07-21T13:28:39.522Z,99047.52
2018-07-21T13:31:07.353Z,99050.03
2018-07-21T13:33:35.155Z,99051.33
2018-07-21T13:36:03.391Z,99053.77
2018-07-21T13:38:31.202Z,99047.75
2018-07-21T13:40:59.034Z,99057.18
2018-07-21T13:43:26.923Z,99044.95
2018-07-21T13:45:54.802Z,99052.11
2018-07-21T13:48:22.644Z,99043.16
2018-07-21T13:50:50.524Z,99042.37
2018-07-21T13:53:18.380Z,99051.05
2018-07-21T13:55:46.209Z,99052.00
2018-07-21T13:58:14.005Z,99053.12
2018-07-21T14:00:41.828Z,99055.55
2018-07-21T14:03:09.613Z,99059.02
2018-07-21T14:05:37.454Z,99061.67
2018-07-21T14:08:05.380Z,99060.11
2018-07-21T14:10:33.339Z,99065.80
2018-07-21T14:13:01.363Z,99054.45
2018-07-21T14:15:29.206Z,99052.45
2018-07-21T14:17:57.019Z,99052.05
2018-07-21T14:20:25.141Z,99050.88
2018-07-21T14:22:52.960Z,99047.42
2018-07-21T14:25:20.767Z,99048.27
2018-07-21T14:27:48.658Z,99042.14
2018-07-21T14:30:16.505Z,99045.27
2018-07-21T14:32:44.329Z,99044.05
2018-07-21T14:35:12.273Z,99037.27
2018-07-21T14:37:40.062Z,99046.34
2018-07-21T14:40:07.902Z,99041.22
2018-07-21T14:42:35.759Z,99038.36
2018-07-21T14:45:03.663Z,99041.73
2018-07-21T14:47:31.532Z,99038.30
2018-07-21T14:49:59.335Z,99037.69
2018-07-21T14:52:27.167Z,99035.28
2018-07-21T14:54:55.030Z,99041.23
2018-07-21T14:57:22.804Z,99044.77
2018-07-21T14:59:50.611Z,99044.17
2018-07-21T15:02:18.431Z,99039.55
2018-07-21T15:04:46.284Z,99039.78
2018-07-21T15:07:14.121Z,99040.17
2018-07-21T15:09:41.990Z,99046.58
2018-07-21T15:12:09.814Z,99055.30
2018-07-21T15:14:37.643Z,99053.47
2018-07-21T15:17:05.754Z,99053.47
2018-07-21T15:19:33.546Z,99064.81
2018-07-21T15:22:01.365Z,99063.34
2018-07-21T15:24:29.167Z,99057.64
2018-07-21T15:26:56.953Z,99063.77
2018-07-21T15:29:24.740Z,99057.70
2018-07-21T15:31:52.617Z,99066.58
2018-07-21T15:34:20.425Z,99067.45
2018-07-21T15:36:48.197Z,99064.14
2018-07-21T15:39:15.973Z,99059.29
2018-07-21T15:41:43.769Z,99061.44
2018-07-21T15:44:11.584Z,99058.94
2018-07-21T15:46:39.408Z,99063.50
2018-07-21T15:49:07.268Z,99065.13
2018-07-21T15:51:35.052Z,99052.77
2018-07-21T15:54:02.909Z,99059.12
2018-07-21T15:56:30.688Z,99059.30
2018-07-21T15:58:58.482Z,99056.57
2018-07-21T16:01:26.460Z,99057.42
2018-07-21T16:03:54.498Z,99053.70
2018-07-21T16:06:22.290Z,99055.15
2018-07-21T16:08:50.099Z,99054.36
2018-07-21T16:11:17.889Z,99051.18
2018-07-21T16:13:45.797Z,99049.98
2018-07-21T16:16:13.989Z,99052.12
2018-07-21T16:18:41.810Z,99055.94
2018-07-21T16:21:09.631Z,99059.62
2018-07-21T16:23:37.507Z,99056.94
2018-07-21T16:26:05.601Z,99055.92
2018-07-21T16:28:33.387Z,99060.98
2018-07-21T16:31:01.174Z,99064.70
2018-07-21T16:33:29.059Z,99061.92
2018-07-21T16:35:56.863Z,99062.25
2018-07-21T16:38:24.670Z,99058.44
2018-07-21T16:40:52.459Z,99061.22
2018-07-21T16:43:20.231Z,99064.48
2018-07-21T16:45:48.247Z,99066.77
2018-07-21T16:48:16.058Z,99067.34
2018-07-21T16:50:43.853Z,99072.59
2018-07-21T16:53:11.644Z,99073.75
2018-07-21T16:55:39.410Z,99072.61
2018-07-21T16:58:07.205Z,99066.47
2018-07-21T17:00:34.991Z,99076.86
2018-07-21T17:03:02.809Z,99079.50
2018-07-21T17:05:30.914Z,99082.41
2018-07-21T17:07:58.734Z,99078.30
2018-07-21T17:10:26.521Z,99082.66
2018-07-21T17:12:54.343Z,99076.56
2018-07-21T17:15:22.129Z,99076.59
2018-07-21T17:17:50.216Z,99072.89
2018-07-21T17:20:18.357Z,99073.77
2018-07-21T17:22:46.165Z,99074.91
2018-07-21T17:25:14.098Z,99075.62
2018-07-21T17:27:41.928Z,99075.19
2018-07-21T17:30:09.737Z,99074.19
2018-07-21T17:32:37.620Z,99073.53
2018-07-21T17:35:05.452Z,99076.97
2018-07-21T17:37:33.342Z,99073.28
2018-07-21T17:40:01.160Z,99080.80
2018-07-21T17:42:28.952Z,99072.88
2018-07-21T17:44:57.258Z,99070.50
2018-07-21T17:47:25.154Z,99076.29
2018-07-21T17:49:52.974Z,99074.15
2018-07-21T17:52:20.848Z,99079.67
2018-07-21T17:54:48.687Z,99075.73
2018-07-21T17:57:16.484Z,99078.84
2018-07-21T17:59:44.293Z,99074.02
2018-07-21T18:02:12.194Z,99083.03
2018-07-21T18:04:40.080Z,99085.25
2018-07-21T18:07:07.912Z,99077.30
2018-07-21T18:09:35.730Z,99084.17
2018-07-21T18:12:03.614Z,99087.85
2018-07-21T18:14:31.509Z,99086.71
2018-07-21T18:16:59.611Z,99088.21
2018-07-21T18:19:27.409Z,99092.81
2018-07-21T18:21:55.244Z,99090.97
2018-07-21T18:24:23.074Z,99092.59
2018-07-21T18:26:50.969Z,99102.56
2018-07-21T18:29:18.776Z,99105.48
2018-07-21T18:31:46.665Z,99106.08
2018-07-21T18:34:14.410Z,99106.45
2018-07-21T18:36:42.240Z,99111.70
2018-07-21T18:39:11.173Z,99116.28
2018-07-21T18:41:39.207Z,99114.71
2018-07-21T18:44:07.390Z,99124.83
2018-07-21T18:46:35.268Z,99125.96
2018-07-21T18:49:03.163Z,99117.22
2018-07-21T18:51:31.048Z,99118.81
2018-07-21T18:53:58.865Z,99130.81
2018-07-21T18:56:26.716Z,99132.22
2018-07-21T18:58:54.563Z,99133.77
2018-07-21T19:01:22.370Z,99140.81
2018-07-21T19:03:50.257Z,99140.42
2018-07-21T19:06:18.162Z,99140.43
2018-07-21T19:08:51.414Z,99153.39
2018-07-21T19:11:19.280Z,99152.77
2018-07-21T19:13:47.104Z,99150.30
2018-07-21T19:16:20.473Z,99149.23
2018-07-21T19:18:48.505Z,99137.54
2018-07-21T19:21:16.594Z,99142.83
2018-07-21T19:23:44.530Z,99146.17
2018-07-21T19:26:17.856Z,99141.96
2018-07-21T19:28:45.785Z,99146.66
2018-07-21T19:31:13.660Z,99145.34
2018-07-21T19:33:41.485Z,99147.37
2018-07-21T19:36:09.355Z,99145.56
2018-07-21T19:38:37.209Z,99140.35
2018-07-21T19:41:10.643Z,99149.26
2018-07-21T19:43:38.822Z,99143.95
2018-07-21T19:46:06.654Z,99146.19
2018-07-21T19:48:34.510Z,99135.95
2018-07-21T19:51:02.471Z,99131.97
2018-07-21T19:53:30.344Z,99137.00
2018-07-21T19:55:58.181Z,99137.19
2018-07-21T19:58:26.004Z,99132.36
2018-07-21T20:00:53.820Z,99126.84
2018-07-21T20:03:21.894Z,99129.21
2018-07-21T20:05:49.761Z,99125.47
2018-07-21T20:08:17.641Z,99135.67
2018-07-21T20:10:45.421Z,99136.16
2018-07-21T20:13:13.221Z,99133.29
2018-07-21T20:15:41.050Z,99132.32
2018-07-21T20:18:08.971Z,99133.52
2018-07-21T20:20:36.768Z,99145.19
2018-07-21T20:23:04.689Z,99140.25
2018-07-21T20:25:32.588Z,99142.14
2018-07-21T20:28:00.392Z,99136.75
2018-07-21T20:30:28.223Z,99138.59
2018-07-21T20:32:56.030Z,99141.17
2018-07-21T20:35:23.849Z,99143.62
2018-07-21T20:37:51.646Z,99137.58
2018-07-21T20:40:19.459Z,99134.67
2018-07-21T20:42:47.271Z,99140.85
2018-07-21T20:45:15.114Z,99136.28
2018-07-21T20:47:42.902Z,99136.30
2018-07-21T20:50:10.740Z,99135.34
2018-07-21T20:52:38.525Z,99139.33
2018-07-21T20:55:06.414Z,99132.59
2018-07-21T20:57:34.194Z,99139.13
2018-07-21T21:00:02.066Z,99138.43
2018-07-21T21:02:29.868Z,99136.48
2018-07-21T21:04:57.767Z,99143.22
2018-07-21T21:07:25.575Z,99138.98
2018-07-21T21:09:53.350Z,99135.41
2018-07-21T21:12:21.276Z,99139.59
2018-07-21T21:14:49.305Z,99134.41
2018-07-21T21:17:17.831Z,99135.23
2018-07-21T21:19:45.614Z,99137.48
2018-07-21T21:22:13.532Z,99134.47
2018-07-21T21:24:41.327Z,99125.58
2018-07-21T21:27:09.506Z,99131.75
2018-07-21T21:29:37.368Z,99126.05
2018-07-21T21:32:05.131Z,99126.43
2018-07-21T21:34:32.920Z,99125.32
2018-07-21T21:37:00.718Z,99119.16
2018-07-21T21:39:28.498Z,99122.12
2018-07-21T21:41:56.333Z,99127.23
2018-07-21T21:44:24.061Z,99126.89
2018-07-21T21:46:51.857Z,99124.11
2018-07-21T21:49:19.625Z,99127.70
2018-07-21T21:51:47.378Z,99119.94
2018-07-21T21:54:15.165Z,99110.16
2018-07-21T21:56:42.971Z,99109.92
2018-07-21T21:59:10.776Z,99104.48
2018-07-21T22:01:38.576Z,99106.80
2018-07-21T22:04:06.400Z,99105.71
2018-07-21T22:06:34.165Z,99105.17
2018-07-21T22:09:01.989Z,99104.52
2018-07-21T22:11:29.775Z,99108.23
2018-07-21T22:13:57.582Z,99099.81
2018-07-21T22:16:25.446Z,99100.44
2018-07-21T22:18:53.277Z,99100.38
2018-07-21T22:21:21.150Z,99101.47
2018-07-21T22:23:48.902Z,99100.80
2018-07-21T22:26:16.665Z,99102.68
2018-07-21T22:28:44.462Z,99098.30
2018-07-21T22:31:12.233Z,99095.36
2018-07-21T22:33:40.002Z,99100.23
2018-07-21T22:36:07.786Z,99093.70
2018-07-21T22:38:35.541Z,99105.94
2018-07-21T22:41:03.377Z,99102.09
2018-07-21T22:43:36.588Z,99099.74
2018-07-21T22:46:04.653Z,99097.61
2018-07-21T22:48:32.408Z,99095.61
2018-07-21T22:51:00.190Z,99090.00
2018-07-21T22:53:27.974Z,99090.52
2018-07-21T22:55:56.056Z,99087.62
2018-07-21T22:58:23.930Z,99089.77
2018-07-21T23:00:51.893Z,99089.72
2018-07-21T23:03:19.672Z,99092.50
2018-07-21T23:05:47.433Z,99094.06
2018-07-21T23:08:15.254Z,99092.44
2018-07-21T23:10:43.026Z,99091.17
2018-07-21T23:13:10.885Z,99087.30
2018-07-21T23:15:38.666Z,99097.47
2018-07-21T23:18:06.421Z,99103.70
2018-07-21T23:20:34.209Z,99107.70
2018-07-21T23:23:01.978Z,99097.66
2018-07-21T23:25:29.763Z,99099.10
2018-07-21T23:27:57.588Z,99097.66
2018-07-21T23:30:25.350Z,99088.81
2018-07-21T23:32:53.114Z,99089.27
2018-07-21T23:35:20.909Z,99091.22
2018-07-21T23:37:48.715Z,99097.50
2018-07-21T23:40:16.485Z,99096.13
2018-07-21T23:42:44.268Z,99091.11
2018-07-21T23:45:12.053Z,99087.83
2018-07-21T23:47:39.852Z,99095.13
2018-07-21T23:50:07.896Z,99093.34
2018-07-21T23:52:35.693Z,99093.37
2018-07-21T23:55:04.446Z,99093.00
2018-07-21T23:57:32.233Z,99099.11
